Kennebunkport, ME

8:30 AM EST on January 23, 2017 (GMT -0500)
MMC | | Change Station
Active Advisory: Storm Warning

Elev 142 ft 43.65 °N, 70.28 °W | Updated 3 minutes ago

Overcast
Overcast
30.6 °F
Feels Like 22 °F
N
10.0
Wind Variable Wind from North
Gusts 21.0 mph

Today
High -- | Low -- °F
--% Chance of Precip.
Yesterday
High -- | Low -- °F
Precip. -- in
Pressure 30.15 in
Visibility 10.0 miles
Clouds Overcast 2200 ft
Windchill 22 °F
Dew Point 24.0 °F
Humidity 77%
Rainfall 0.00 in
Snow Depth Not available.
7:06 AM 4:42 PM
Waning Crescent, 18% visible
METAR KSFM 231256Z AUTO 04013KT 10SM OVC022 M02/M05 A3011 RMK AO2 SNB11E27 SLP208 P0000 T10171050 FZRANO
Pressure 30.15 in
Visibility 10.0 miles
Clouds Overcast 2200 ft
Windchill 22 °F
Dew Point 24.0 °F
Humidity 77%
Rainfall 0.00 in
Snow Depth Not available.
7:06 AM 4:42 PM
Waning Crescent, 18% visible
METAR KSFM 231256Z AUTO 04013KT 10SM OVC022 M02/M05 A3011 RMK AO2 SNB11E27 SLP208 P0000 T10171050 FZRANO

Get Your Daily Forecast Email!

Thanks for signing up!

Be on the lookout for a verification email in your inbox.

You'll start receiving the daily forecast at 8 AM.

×

10-Day Weather Forecast

Almanac

Astronomy

Jan. 23, 2017 Rise Set
Actual Time
Civil Twilight
Nautical Twilight
Astronomical Twilight
Moon
Length of Visible Light
Length of Day
Tomorrow will be .
, % of the Moon is Illuminated

Today's Extremes

State Highs State Lows

Community

WunderPhotos

Upload Photos

1,962,540 photos uploaded!

WunderBlog® & News

Nearby

Air Quality

  Air Quality AQ Index Pollutant
Not available.

Snow Depth

Station Depth Elevation

Earthquake Activity

City Distance Mag. Time & Date
Minimum magnitude displayed is 2.5.

Coastal Water Temperatures

Place Temperature

Stations

Nearby Weather Stations

Station Location Temp. Windchill Dew Point Humidity Wind Precip. Elev Updated Type
                   

Watches & Warnings

Storm Warning
Issued: 2:50 AM EST Jan. 23, 2017 – National Weather Service

... Storm Warning remains in effect from 6 PM this evening to
11 am EST Tuesday...

* winds... east 30 to 40 kt with gusts up to 55 kt.

* Seas... 16 to 21 feet.

Precautionary/preparedness actions...

A Storm Warning means winds of 48 to 63 knots are imminent or
occuring. Recreational boaters should remain in port... or take
shelter until winds and waves subside. Commercial vessels should
prepare for very strong winds and dangerous sea conditions... and
consider remaining in port or taking shelter in port until winds
and waves subside.